sensor_id;sensor_type;location;lat;lon;timestamp;temperature;humidity
44817;DHT22;30529;53.570;9.964;2023-03-14T00:01:08;10.70;99.90
44817;DHT22;30529;53.570;9.964;2023-03-14T00:03:35;10.70;99.90
44817;DHT22;30529;53.570;9.964;2023-03-14T00:06:05;10.70;99.90
44817;DHT22;30529;53.570;9.964;2023-03-14T00:08:31;10.70;99.90
44817;DHT22;30529;53.570;9.964;2023-03-14T00:10:57;10.60;99.90
44817;DHT22;30529;53.570;9.964;2023-03-14T00:13:24;10.60;99.90
44817;DHT22;30529;53.570;9.964;2023-03-14T00:15:50;10.60;99.90
44817;DHT22;30529;53.570;9.964;2023-03-14T00:18:16;10.60;99.90
44817;DHT22;30529;53.570;9.964;2023-03-14T00:20:42;10.60;99.90
44817;DHT22;30529;53.570;9.964;2023-03-14T00:23:08;10.50;99.90
44817;DHT22;30529;53.570;9.964;2023-03-14T00:25:34;10.60;99.90
44817;DHT22;30529;53.570;9.964;2023-03-14T00:28:00;10.60;99.90
44817;DHT22;30529;53.570;9.964;2023-03-14T00:30:27;10.70;99.90
44817;DHT22;30529;53.570;9.964;2023-03-14T00:32:53;10.80;99.90
44817;DHT22;30529;53.570;9.964;2023-03-14T00:35:19;10.90;99.90
44817;DHT22;30529;53.570;9.964;2023-03-14T00:37:45;10.90;99.90
44817;DHT22;30529;53.570;9.964;2023-03-14T00:40:11;10.90;99.90
44817;DHT22;30529;53.570;9.964;2023-03-14T00:42:38;10.90;99.90
44817;DHT22;30529;53.570;9.964;2023-03-14T00:45:10;11.00;99.90
44817;DHT22;30529;53.570;9.964;2023-03-14T00:47:36;11.00;99.90
44817;DHT22;30529;53.570;9.964;2023-03-14T00:50:02;11.00;99.90
44817;DHT22;30529;53.570;9.964;2023-03-14T00:52:28;11.00;99.90
44817;DHT22;30529;53.570;9.964;2023-03-14T00:54:54;11.00;99.90
44817;DHT22;30529;53.570;9.964;2023-03-14T00:57:20;11.00;99.90
44817;DHT22;30529;53.570;9.964;2023-03-14T00:59:46;11.00;99.90
44817;DHT22;30529;53.570;9.964;2023-03-14T01:02:12;11.00;99.90
44817;DHT22;30529;53.570;9.964;2023-03-14T01:04:38;11.10;99.90
44817;DHT22;30529;53.570;9.964;2023-03-14T01:07:05;11.10;99.90
44817;DHT22;30529;53.570;9.964;2023-03-14T01:09:31;11.20;99.90
44817;DHT22;30529;53.570;9.964;2023-03-14T01:11:57;11.10;99.90
44817;DHT22;30529;53.570;9.964;2023-03-14T01:14:23;11.10;99.90
44817;DHT22;30529;53.570;9.964;2023-03-14T01:16:49;11.10;99.90
44817;DHT22;30529;53.570;9.964;2023-03-14T01:19:14;11.20;99.90
44817;DHT22;30529;53.570;9.964;2023-03-14T01:21:40;11.20;99.90
44817;DHT22;30529;53.570;9.964;2023-03-14T01:24:07;11.20;99.90
44817;DHT22;30529;53.570;9.964;2023-03-14T01:26:34;11.20;99.90
44817;DHT22;30529;53.570;9.964;2023-03-14T01:29:01;11.20;99.90
44817;DHT22;30529;53.570;9.964;2023-03-14T01:31:27;11.20;99.90
44817;DHT22;30529;53.570;9.964;2023-03-14T01:33:53;11.10;99.90
44817;DHT22;30529;53.570;9.964;2023-03-14T01:36:19;11.10;99.90
44817;DHT22;30529;53.570;9.964;2023-03-14T01:38:45;11.00;99.90
44817;DHT22;30529;53.570;9.964;2023-03-14T01:41:20;11.10;99.90
44817;DHT22;30529;53.570;9.964;2023-03-14T01:43:47;11.00;99.90
44817;DHT22;30529;53.570;9.964;2023-03-14T01:46:20;11.00;99.90
44817;DHT22;30529;53.570;9.964;2023-03-14T01:48:47;10.90;99.90
44817;DHT22;30529;53.570;9.964;2023-03-14T01:51:27;10.90;99.90
44817;DHT22;30529;53.570;9.964;2023-03-14T01:54:02;10.80;99.90
44817;DHT22;30529;53.570;9.964;2023-03-14T01:56:30;10.70;99.90
44817;DHT22;30529;53.570;9.964;2023-03-14T01:58:58;10.70;99.90
44817;DHT22;30529;53.570;9.964;2023-03-14T02:01:26;10.60;99.90
44817;DHT22;30529;53.570;9.964;2023-03-14T02:03:55;10.60;99.90
44817;DHT22;30529;53.570;9.964;2023-03-14T02:06:26;10.60;99.90
44817;DHT22;30529;53.570;9.964;2023-03-14T02:08:55;10.70;99.90
44817;DHT22;30529;53.570;9.964;2023-03-14T02:11:21;10.80;99.90
44817;DHT22;30529;53.570;9.964;2023-03-14T02:13:52;10.80;99.90
44817;DHT22;30529;53.570;9.964;2023-03-14T02:16:18;10.70;99.90
44817;DHT22;30529;53.570;9.964;2023-03-14T02:18:45;10.60;99.90
44817;DHT22;30529;53.570;9.964;2023-03-14T02:24:25;10.40;99.90
44817;DHT22;30529;53.570;9.964;2023-03-14T02:27:13;10.30;99.90
44817;DHT22;30529;53.570;9.964;2023-03-14T02:30:00;10.30;99.90
44817;DHT22;30529;53.570;9.964;2023-03-14T02:32:29;10.30;99.90
44817;DHT22;30529;53.570;9.964;2023-03-14T02:34:58;10.30;99.90
44817;DHT22;30529;53.570;9.964;2023-03-14T02:37:35;10.30;99.90
44817;DHT22;30529;53.570;9.964;2023-03-14T02:40:02;10.20;99.90
44817;DHT22;30529;53.570;9.964;2023-03-14T02:42:30;10.30;99.90
44817;DHT22;30529;53.570;9.964;2023-03-14T02:47:37;10.40;99.90
44817;DHT22;30529;53.570;9.964;2023-03-14T02:50:13;10.50;99.90
44817;DHT22;30529;53.570;9.964;2023-03-14T02:52:40;10.60;99.90
44817;DHT22;30529;53.570;9.964;2023-03-14T02:55:06;10.70;99.90
44817;DHT22;30529;53.570;9.964;2023-03-14T02:57:33;10.80;99.90
44817;DHT22;30529;53.570;9.964;2023-03-14T03:00:00;10.80;99.90
44817;DHT22;30529;53.570;9.964;2023-03-14T03:02:27;10.80;99.90
44817;DHT22;30529;53.570;9.964;2023-03-14T03:04:53;10.90;99.90
44817;DHT22;30529;53.570;9.964;2023-03-14T03:07:19;10.90;99.90
44817;DHT22;30529;53.570;9.964;2023-03-14T03:09:46;11.00;99.90
44817;DHT22;30529;53.570;9.964;2023-03-14T03:12:12;11.00;99.90
44817;DHT22;30529;53.570;9.964;2023-03-14T03:14:38;11.00;99.90
44817;DHT22;30529;53.570;9.964;2023-03-14T03:17:05;11.10;99.90
44817;DHT22;30529;53.570;9.964;2023-03-14T03:19:31;11.10;99.90
44817;DHT22;30529;53.570;9.964;2023-03-14T03:21:58;11.10;99.90
44817;DHT22;30529;53.570;9.964;2023-03-14T03:24:25;11.10;99.90
44817;DHT22;30529;53.570;9.964;2023-03-14T03:26:51;11.10;99.90
44817;DHT22;30529;53.570;9.964;2023-03-14T03:29:17;11.10;99.90
44817;DHT22;30529;53.570;9.964;2023-03-14T03:31:43;11.10;99.90
44817;DHT22;30529;53.570;9.964;2023-03-14T03:34:12;11.20;99.90
44817;DHT22;30529;53.570;9.964;2023-03-14T03:36:38;11.20;99.90
44817;DHT22;30529;53.570;9.964;2023-03-14T03:39:04;11.20;99.90
44817;DHT22;30529;53.570;9.964;2023-03-14T03:41:30;11.20;99.90
44817;DHT22;30529;53.570;9.964;2023-03-14T03:43:56;11.20;99.90
44817;DHT22;30529;53.570;9.964;2023-03-14T03:46:23;11.20;99.90
44817;DHT22;30529;53.570;9.964;2023-03-14T03:48:57;11.10;99.90
44817;DHT22;30529;53.570;9.964;2023-03-14T03:51:23;11.10;99.90
44817;DHT22;30529;53.570;9.964;2023-03-14T03:53:50;11.00;99.90
44817;DHT22;30529;53.570;9.964;2023-03-14T03:56:16;11.10;99.90
44817;DHT22;30529;53.570;9.964;2023-03-14T03:58:43;11.00;99.90
44817;DHT22;30529;53.570;9.964;2023-03-14T04:01:09;11.00;99.90
44817;DHT22;30529;53.570;9.964;2023-03-14T04:03:36;11.00;99.90
44817;DHT22;30529;53.570;9.964;2023-03-14T04:06:07;11.00;99.90
44817;DHT22;30529;53.570;9.964;2023-03-14T04:08:33;11.00;99.90
44817;DHT22;30529;53.570;9.964;2023-03-14T04:11:00;11.00;99.90
44817;DHT22;30529;53.570;9.964;2023-03-14T04:13:27;10.90;99.90
44817;DHT22;30529;53.570;9.964;2023-03-14T04:15:54;10.90;99.90
44817;DHT22;30529;53.570;9.964;2023-03-14T04:18:21;10.90;99.90
44817;DHT22;30529;53.570;9.964;2023-03-14T04:20:54;10.90;99.90
44817;DHT22;30529;53.570;9.964;2023-03-14T04:23:22;10.90;99.90
44817;DHT22;30529;53.570;9.964;2023-03-14T04:25:51;10.90;99.90
44817;DHT22;30529;53.570;9.964;2023-03-14T04:28:18;10.90;99.90
44817;DHT22;30529;53.570;9.964;2023-03-14T04:30:44;10.90;99.90
44817;DHT22;30529;53.570;9.964;2023-03-14T04:33:10;10.80;99.90
44817;DHT22;30529;53.570;9.964;2023-03-14T04:35:38;10.80;99.90
44817;DHT22;30529;53.570;9.964;2023-03-14T04:38:04;10.70;99.90
44817;DHT22;30529;53.570;9.964;2023-03-14T04:40:30;10.80;99.90
44817;DHT22;30529;53.570;9.964;2023-03-14T04:42:56;10.90;99.90
44817;DHT22;30529;53.570;9.964;2023-03-14T04:45:22;10.90;99.90
44817;DHT22;30529;53.570;9.964;2023-03-14T04:47:48;11.00;99.90
44817;DHT22;30529;53.570;9.964;2023-03-14T04:50:14;11.00;99.90
44817;DHT22;30529;53.570;9.964;2023-03-14T04:52:40;11.10;99.90
44817;DHT22;30529;53.570;9.964;2023-03-14T04:55:06;11.10;99.90
44817;DHT22;30529;53.570;9.964;2023-03-14T04:57:32;11.10;99.90
44817;DHT22;30529;53.570;9.964;2023-03-14T04:59:58;11.10;99.90
44817;DHT22;30529;53.570;9.964;2023-03-14T05:02:24;11.10;99.90
44817;DHT22;30529;53.570;9.964;2023-03-14T05:04:50;11.10;99.90
44817;DHT22;30529;53.570;9.964;2023-03-14T05:07:16;11.10;99.90
44817;DHT22;30529;53.570;9.964;2023-03-14T05:09:42;11.10;99.90
44817;DHT22;30529;53.570;9.964;2023-03-14T05:12:08;11.10;99.90
44817;DHT22;30529;53.570;9.964;2023-03-14T05:14:34;11.10;99.90
44817;DHT22;30529;53.570;9.964;2023-03-14T05:17:00;11.10;99.90
44817;DHT22;30529;53.570;9.964;2023-03-14T05:19:26;11.00;99.90
44817;DHT22;30529;53.570;9.964;2023-03-14T05:21:52;10.80;99.90
44817;DHT22;30529;53.570;9.964;2023-03-14T05:24:18;10.60;99.90
44817;DHT22;30529;53.570;9.964;2023-03-14T05:26:44;10.40;99.90
44817;DHT22;30529;53.570;9.964;2023-03-14T05:29:10;10.40;99.90
44817;DHT22;30529;53.570;9.964;2023-03-14T05:31:36;10.40;99.90
44817;DHT22;30529;53.570;9.964;2023-03-14T05:34:02;10.40;99.90
44817;DHT22;30529;53.570;9.964;2023-03-14T05:36:28;10.30;99.90
44817;DHT22;30529;53.570;9.964;2023-03-14T05:38:54;10.30;99.90
44817;DHT22;30529;53.570;9.964;2023-03-14T05:41:20;10.30;99.90
44817;DHT22;30529;53.570;9.964;2023-03-14T05:43:46;10.30;99.90
44817;DHT22;30529;53.570;9.964;2023-03-14T05:46:12;10.30;99.90
44817;DHT22;30529;53.570;9.964;2023-03-14T05:48:39;10.30;99.90
44817;DHT22;30529;53.570;9.964;2023-03-14T05:51:06;10.30;99.90
44817;DHT22;30529;53.570;9.964;2023-03-14T05:53:32;10.30;99.90
44817;DHT22;30529;53.570;9.964;2023-03-14T05:55:58;10.30;99.90
44817;DHT22;30529;53.570;9.964;2023-03-14T05:58:24;10.30;99.90
44817;DHT22;30529;53.570;9.964;2023-03-14T06:00:50;10.30;99.90
44817;DHT22;30529;53.570;9.964;2023-03-14T06:03:16;10.40;99.90
44817;DHT22;30529;53.570;9.964;2023-03-14T06:05:42;10.40;99.90
44817;DHT22;30529;53.570;9.964;2023-03-14T06:08:08;10.40;99.90
44817;DHT22;30529;53.570;9.964;2023-03-14T06:10:35;10.40;99.90
44817;DHT22;30529;53.570;9.964;2023-03-14T06:13:02;10.40;99.90
44817;DHT22;30529;53.570;9.964;2023-03-14T06:15:28;10.40;99.90
44817;DHT22;30529;53.570;9.964;2023-03-14T06:17:55;10.40;99.90
44817;DHT22;30529;53.570;9.964;2023-03-14T06:20:21;10.50;99.90
44817;DHT22;30529;53.570;9.964;2023-03-14T06:22:48;10.50;99.90
44817;DHT22;30529;53.570;9.964;2023-03-14T06:25:14;10.50;99.90
44817;DHT22;30529;53.570;9.964;2023-03-14T06:27:40;10.50;99.90
44817;DHT22;30529;53.570;9.964;2023-03-14T06:30:08;10.50;99.90
44817;DHT22;30529;53.570;9.964;2023-03-14T06:32:34;10.50;99.90
44817;DHT22;30529;53.570;9.964;2023-03-14T06:35:00;10.40;99.90
44817;DHT22;30529;53.570;9.964;2023-03-14T06:37:28;10.30;99.90
44817;DHT22;30529;53.570;9.964;2023-03-14T06:39:54;10.30;99.90
44817;DHT22;30529;53.570;9.964;2023-03-14T06:42:20;10.40;99.90
44817;DHT22;30529;53.570;9.964;2023-03-14T06:44:46;10.50;99.90
44817;DHT22;30529;53.570;9.964;2023-03-14T06:47:12;10.50;99.90
44817;DHT22;30529;53.570;9.964;2023-03-14T06:49:39;10.60;99.90
44817;DHT22;30529;53.570;9.964;2023-03-14T06:52:05;10.60;99.90
44817;DHT22;30529;53.570;9.964;2023-03-14T06:54:31;10.60;99.90
44817;DHT22;30529;53.570;9.964;2023-03-14T06:56:57;10.60;99.90
44817;DHT22;30529;53.570;9.964;2023-03-14T06:59:23;10.70;99.90
44817;DHT22;30529;53.570;9.964;2023-03-14T07:01:49;10.70;99.90
44817;DHT22;30529;53.570;9.964;2023-03-14T07:04:17;10.70;99.90
44817;DHT22;30529;53.570;9.964;2023-03-14T07:06:43;10.70;99.90
44817;DHT22;30529;53.570;9.964;2023-03-14T07:09:14;10.70;99.90
44817;DHT22;30529;53.570;9.964;2023-03-14T07:11:40;10.70;99.90
44817;DHT22;30529;53.570;9.964;2023-03-14T07:14:06;10.70;99.90
44817;DHT22;30529;53.570;9.964;2023-03-14T07:16:32;10.70;99.90
44817;DHT22;30529;53.570;9.964;2023-03-14T07:18:59;10.70;99.90
44817;DHT22;30529;53.570;9.964;2023-03-14T07:21:26;10.80;99.90
44817;DHT22;30529;53.570;9.964;2023-03-14T07:23:52;10.90;99.90
44817;DHT22;30529;53.570;9.964;2023-03-14T07:26:18;10.90;99.90
44817;DHT22;30529;53.570;9.964;2023-03-14T07:28:44;10.90;99.90
44817;DHT22;30529;53.570;9.964;2023-03-14T07:31:10;10.90;99.90
44817;DHT22;30529;53.570;9.964;2023-03-14T07:33:36;11.00;99.90
44817;DHT22;30529;53.570;9.964;2023-03-14T07:36:02;11.00;99.90
44817;DHT22;30529;53.570;9.964;2023-03-14T07:38:29;11.10;99.90
44817;DHT22;30529;53.570;9.964;2023-03-14T07:41:04;11.20;99.90
44817;DHT22;30529;53.570;9.964;2023-03-14T07:43:30;11.10;99.90
44817;DHT22;30529;53.570;9.964;2023-03-14T07:45:58;11.10;99.90
44817;DHT22;30529;53.570;9.964;2023-03-14T07:48:24;11.10;99.90
44817;DHT22;30529;53.570;9.964;2023-03-14T07:50:53;11.00;99.90
44817;DHT22;30529;53.570;9.964;2023-03-14T07:53:20;10.90;99.90
44817;DHT22;30529;53.570;9.964;2023-03-14T07:55:46;11.00;99.90
44817;DHT22;30529;53.570;9.964;2023-03-14T07:58:14;11.10;99.90
44817;DHT22;30529;53.570;9.964;2023-03-14T08:00:40;11.10;99.90
44817;DHT22;30529;53.570;9.964;2023-03-14T08:03:06;11.10;99.90
44817;DHT22;30529;53.570;9.964;2023-03-14T08:05:36;11.00;99.90
44817;DHT22;30529;53.570;9.964;2023-03-14T08:08:03;11.00;99.90
44817;DHT22;30529;53.570;9.964;2023-03-14T08:10:30;11.10;99.90
44817;DHT22;30529;53.570;9.964;2023-03-14T08:12:59;11.20;99.90
44817;DHT22;30529;53.570;9.964;2023-03-14T08:15:26;11.30;99.90
44817;DHT22;30529;53.570;9.964;2023-03-14T08:17:54;11.50;99.90
44817;DHT22;30529;53.570;9.964;2023-03-14T08:20:22;11.70;99.90
44817;DHT22;30529;53.570;9.964;2023-03-14T08:22:48;11.70;99.90
44817;DHT22;30529;53.570;9.964;2023-03-14T08:25:15;11.80;99.90
44817;DHT22;30529;53.570;9.964;2023-03-14T08:27:42;11.80;99.90
44817;DHT22;30529;53.570;9.964;2023-03-14T08:30:11;11.80;99.90
44817;DHT22;30529;53.570;9.964;2023-03-14T08:32:37;11.80;99.90
44817;DHT22;30529;53.570;9.964;2023-03-14T08:35:04;11.70;99.90
44817;DHT22;30529;53.570;9.964;2023-03-14T08:37:32;11.70;99.90
44817;DHT22;30529;53.570;9.964;2023-03-14T08:39:58;11.70;99.90
44817;DHT22;30529;53.570;9.964;2023-03-14T08:42:24;11.70;99.90
44817;DHT22;30529;53.570;9.964;2023-03-14T08:44:51;11.70;99.90
44817;DHT22;30529;53.570;9.964;2023-03-14T08:47:18;11.80;99.90
44817;DHT22;30529;53.570;9.964;2023-03-14T08:49:44;11.80;99.90
44817;DHT22;30529;53.570;9.964;2023-03-14T08:52:09;11.60;99.90
44817;DHT22;30529;53.570;9.964;2023-03-14T08:54:35;11.50;99.90
44817;DHT22;30529;53.570;9.964;2023-03-14T08:57:02;11.50;99.90
44817;DHT22;30529;53.570;9.964;2023-03-14T08:59:28;11.60;99.90
44817;DHT22;30529;53.570;9.964;2023-03-14T09:01:54;11.60;99.90
44817;DHT22;30529;53.570;9.964;2023-03-14T09:04:20;11.60;99.90
44817;DHT22;30529;53.570;9.964;2023-03-14T09:06:47;11.60;99.90
44817;DHT22;30529;53.570;9.964;2023-03-14T09:09:13;11.50;99.90
44817;DHT22;30529;53.570;9.964;2023-03-14T09:11:40;11.50;99.90
44817;DHT22;30529;53.570;9.964;2023-03-14T09:14:06;11.50;99.90
44817;DHT22;30529;53.570;9.964;2023-03-14T09:16:33;11.40;99.90
44817;DHT22;30529;53.570;9.964;2023-03-14T09:18:59;11.30;99.90
44817;DHT22;30529;53.570;9.964;2023-03-14T09:21:26;11.30;99.90
44817;DHT22;30529;53.570;9.964;2023-03-14T09:23:53;11.40;99.90
44817;DHT22;30529;53.570;9.964;2023-03-14T09:26:19;11.30;99.90
44817;DHT22;30529;53.570;9.964;2023-03-14T09:28:45;11.30;99.90
44817;DHT22;30529;53.570;9.964;2023-03-14T09:31:12;11.30;99.90
44817;DHT22;30529;53.570;9.964;2023-03-14T09:33:38;11.30;99.90
44817;DHT22;30529;53.570;9.964;2023-03-14T09:36:05;11.30;99.90
44817;DHT22;30529;53.570;9.964;2023-03-14T09:38:31;11.50;99.90
44817;DHT22;30529;53.570;9.964;2023-03-14T09:41:00;11.60;99.90
44817;DHT22;30529;53.570;9.964;2023-03-14T09:43:30;11.80;99.90
44817;DHT22;30529;53.570;9.964;2023-03-14T09:45:58;11.90;99.90
44817;DHT22;30529;53.570;9.964;2023-03-14T09:48:30;11.80;99.90
44817;DHT22;30529;53.570;9.964;2023-03-14T09:51:00;11.60;99.90
44817;DHT22;30529;53.570;9.964;2023-03-14T09:53:40;11.40;99.90
44817;DHT22;30529;53.570;9.964;2023-03-14T09:56:21;11.20;99.90
44817;DHT22;30529;53.570;9.964;2023-03-14T09:58:52;10.70;99.90
44817;DHT22;30529;53.570;9.964;2023-03-14T10:01:27;10.10;99.90
44817;DHT22;30529;53.570;9.964;2023-03-14T10:03:55;9.60;99.90
44817;DHT22;30529;53.570;9.964;2023-03-14T10:06:24;9.40;99.90
44817;DHT22;30529;53.570;9.964;2023-03-14T10:08:51;9.30;99.90
44817;DHT22;30529;53.570;9.964;2023-03-14T10:11:19;9.30;99.90
44817;DHT22;30529;53.570;9.964;2023-03-14T10:14:10;9.00;99.90
44817;DHT22;30529;53.570;9.964;2023-03-14T10:16:45;8.90;99.90
44817;DHT22;30529;53.570;9.964;2023-03-14T10:19:15;8.90;99.90
44817;DHT22;30529;53.570;9.964;2023-03-14T10:21:51;8.90;99.90
44817;DHT22;30529;53.570;9.964;2023-03-14T10:24:29;8.90;99.90
44817;DHT22;30529;53.570;9.964;2023-03-14T10:27:03;8.70;99.90
44817;DHT22;30529;53.570;9.964;2023-03-14T10:29:31;8.50;99.90
44817;DHT22;30529;53.570;9.964;2023-03-14T10:32:06;8.20;99.90
44817;DHT22;30529;53.570;9.964;2023-03-14T10:34:35;7.90;99.90
44817;DHT22;30529;53.570;9.964;2023-03-14T10:37:21;8.00;99.90
44817;DHT22;30529;53.570;9.964;2023-03-14T10:39:53;7.90;99.90
44817;DHT22;30529;53.570;9.964;2023-03-14T10:44:49;7.60;99.90
44817;DHT22;30529;53.570;9.964;2023-03-14T10:47:22;7.50;99.90
44817;DHT22;30529;53.570;9.964;2023-03-14T10:49:48;7.20;99.90
44817;DHT22;30529;53.570;9.964;2023-03-14T10:52:26;7.00;99.90
44817;DHT22;30529;53.570;9.964;2023-03-14T10:54:57;7.00;99.90
44817;DHT22;30529;53.570;9.964;2023-03-14T10:57:24;6.70;99.90
44817;DHT22;30529;53.570;9.964;2023-03-14T10:59:51;6.70;99.90
44817;DHT22;30529;53.570;9.964;2023-03-14T11:02:49;6.60;99.90
44817;DHT22;30529;53.570;9.964;2023-03-14T11:08:08;6.60;99.90
44817;DHT22;30529;53.570;9.964;2023-03-14T11:10:38;6.60;99.90
44817;DHT22;30529;53.570;9.964;2023-03-14T11:13:17;6.40;99.90
44817;DHT22;30529;53.570;9.964;2023-03-14T11:18:43;6.40;99.90
44817;DHT22;30529;53.570;9.964;2023-03-14T11:21:29;6.10;99.90
44817;DHT22;30529;53.570;9.964;2023-03-14T11:24:14;5.80;99.90
44817;DHT22;30529;53.570;9.964;2023-03-14T11:26:48;6.20;99.90
44817;DHT22;30529;53.570;9.964;2023-03-14T11:29:21;6.00;99.90
44817;DHT22;30529;53.570;9.964;2023-03-14T11:31:53;6.20;99.90
44817;DHT22;30529;53.570;9.964;2023-03-14T11:34:51;6.30;99.90
44817;DHT22;30529;53.570;9.964;2023-03-14T11:37:28;6.60;99.90
44817;DHT22;30529;53.570;9.964;2023-03-14T11:40:17;6.80;99.90
44817;DHT22;30529;53.570;9.964;2023-03-14T11:42:48;6.80;99.90
44817;DHT22;30529;53.570;9.964;2023-03-14T11:45:22;6.90;99.90
44817;DHT22;30529;53.570;9.964;2023-03-14T11:48:20;7.00;99.90
44817;DHT22;30529;53.570;9.964;2023-03-14T11:50:52;7.00;99.90
44817;DHT22;30529;53.570;9.964;2023-03-14T11:53:29;7.00;99.90
44817;DHT22;30529;53.570;9.964;2023-03-14T11:55:59;7.10;99.90
44817;DHT22;30529;53.570;9.964;2023-03-14T11:58:29;7.00;99.90
44817;DHT22;30529;53.570;9.964;2023-03-14T12:00:57;6.90;99.90
44817;DHT22;30529;53.570;9.964;2023-03-14T12:03:38;6.80;99.90
44817;DHT22;30529;53.570;9.964;2023-03-14T12:08:57;6.60;99.90
44817;DHT22;30529;53.570;9.964;2023-03-14T12:16:55;7.00;99.90
44817;DHT22;30529;53.570;9.964;2023-03-14T12:21:56;6.90;99.90
44817;DHT22;30529;53.570;9.964;2023-03-14T12:24:29;6.90;99.90
44817;DHT22;30529;53.570;9.964;2023-03-14T12:27:00;6.90;99.90
44817;DHT22;30529;53.570;9.964;2023-03-14T12:29:28;6.60;99.90
44817;DHT22;30529;53.570;9.964;2023-03-14T12:32:08;6.70;99.90
44817;DHT22;30529;53.570;9.964;2023-03-14T12:34:40;7.00;99.90
44817;DHT22;30529;53.570;9.964;2023-03-14T12:37:23;7.10;99.90
44817;DHT22;30529;53.570;9.964;2023-03-14T12:40:15;7.10;99.90
44817;DHT22;30529;53.570;9.964;2023-03-14T12:42:56;7.30;99.90
44817;DHT22;30529;53.570;9.964;2023-03-14T12:45:34;7.30;99.90
44817;DHT22;30529;53.570;9.964;2023-03-14T12:48:08;7.20;99.90
44817;DHT22;30529;53.570;9.964;2023-03-14T12:50:40;7.00;99.90
44817;DHT22;30529;53.570;9.964;2023-03-14T12:54:02;7.10;99.90
44817;DHT22;30529;53.570;9.964;2023-03-14T12:56:17;7.30;99.90
44817;DHT22;30529;53.570;9.964;2023-03-14T12:59:11;7.30;99.90
44817;DHT22;30529;53.570;9.964;2023-03-14T13:01:46;7.40;99.90
44817;DHT22;30529;53.570;9.964;2023-03-14T13:04:13;7.30;99.90
44817;DHT22;30529;53.570;9.964;2023-03-14T13:06:57;7.20;99.90
44817;DHT22;30529;53.570;9.964;2023-03-14T13:11:58;7.60;99.90
44817;DHT22;30529;53.570;9.964;2023-03-14T13:14:29;7.80;99.90
44817;DHT22;30529;53.570;9.964;2023-03-14T13:17:00;7.90;99.90
44817;DHT22;30529;53.570;9.964;2023-03-14T13:19:28;8.10;99.90
44817;DHT22;30529;53.570;9.964;2023-03-14T13:22:21;8.00;99.90
44817;DHT22;30529;53.570;9.964;2023-03-14T13:24:47;8.10;99.90
44817;DHT22;30529;53.570;9.964;2023-03-14T13:27:18;8.00;99.90
44817;DHT22;30529;53.570;9.964;2023-03-14T13:29:49;8.00;99.90
44817;DHT22;30529;53.570;9.964;2023-03-14T13:32:39;7.80;99.90
44817;DHT22;30529;53.570;9.964;2023-03-14T13:35:18;7.70;99.90
44817;DHT22;30529;53.570;9.964;2023-03-14T13:37:45;7.60;99.90
44817;DHT22;30529;53.570;9.964;2023-03-14T13:40:25;7.50;99.90
44817;DHT22;30529;53.570;9.964;2023-03-14T13:43:02;7.70;99.90
44817;DHT22;30529;53.570;9.964;2023-03-14T13:45:28;7.80;99.90
44817;DHT22;30529;53.570;9.964;2023-03-14T13:47:54;7.80;99.90
44817;DHT22;30529;53.570;9.964;2023-03-14T13:50:20;7.70;99.90
44817;DHT22;30529;53.570;9.964;2023-03-14T13:52:46;7.70;99.90
44817;DHT22;30529;53.570;9.964;2023-03-14T13:55:18;7.70;99.90
44817;DHT22;30529;53.570;9.964;2023-03-14T13:57:48;7.60;99.90
44817;DHT22;30529;53.570;9.964;2023-03-14T14:00:32;7.60;99.90
44817;DHT22;30529;53.570;9.964;2023-03-14T14:02:59;7.50;99.90
44817;DHT22;30529;53.570;9.964;2023-03-14T14:05:27;7.40;99.90
44817;DHT22;30529;53.570;9.964;2023-03-14T14:07:53;7.20;99.90
44817;DHT22;30529;53.570;9.964;2023-03-14T14:10:20;7.20;99.90
44817;DHT22;30529;53.570;9.964;2023-03-14T14:12:50;7.30;99.90
44817;DHT22;30529;53.570;9.964;2023-03-14T14:15:20;7.20;99.90
44817;DHT22;30529;53.570;9.964;2023-03-14T14:17:50;7.20;99.90
44817;DHT22;30529;53.570;9.964;2023-03-14T14:20:35;7.30;99.90
44817;DHT22;30529;53.570;9.964;2023-03-14T14:23:24;7.30;99.90
44817;DHT22;30529;53.570;9.964;2023-03-14T14:25:52;7.30;99.90
44817;DHT22;30529;53.570;9.964;2023-03-14T14:28:25;7.30;99.90
44817;DHT22;30529;53.570;9.964;2023-03-14T14:31:22;7.20;99.90
44817;DHT22;30529;53.570;9.964;2023-03-14T14:34:00;7.10;99.90
44817;DHT22;30529;53.570;9.964;2023-03-14T14:36:38;7.10;99.90
44817;DHT22;30529;53.570;9.964;2023-03-14T14:39:27;7.20;99.90
44817;DHT22;30529;53.570;9.964;2023-03-14T14:41:54;7.10;99.90
44817;DHT22;30529;53.570;9.964;2023-03-14T14:44:32;7.10;99.90
44817;DHT22;30529;53.570;9.964;2023-03-14T14:47:02;7.00;99.90
44817;DHT22;30529;53.570;9.964;2023-03-14T14:49:33;7.00;99.90
44817;DHT22;30529;53.570;9.964;2023-03-14T14:52:03;7.10;99.90
44817;DHT22;30529;53.570;9.964;2023-03-14T14:57:20;7.20;99.90
44817;DHT22;30529;53.570;9.964;2023-03-14T14:59:49;7.10;99.90
44817;DHT22;30529;53.570;9.964;2023-03-14T15:04:58;6.90;99.90
44817;DHT22;30529;53.570;9.964;2023-03-14T15:07:24;7.00;99.90
44817;DHT22;30529;53.570;9.964;2023-03-14T15:09:50;6.90;99.90
44817;DHT22;30529;53.570;9.964;2023-03-14T15:12:16;6.90;99.90
44817;DHT22;30529;53.570;9.964;2023-03-14T15:14:42;6.90;99.90
44817;DHT22;30529;53.570;9.964;2023-03-14T15:17:12;7.00;99.90
44817;DHT22;30529;53.570;9.964;2023-03-14T15:19:38;7.10;99.90
44817;DHT22;30529;53.570;9.964;2023-03-14T15:22:11;7.10;99.90
44817;DHT22;30529;53.570;9.964;2023-03-14T15:24:37;6.90;99.90
44817;DHT22;30529;53.570;9.964;2023-03-14T15:27:08;6.80;99.90
44817;DHT22;30529;53.570;9.964;2023-03-14T15:29:36;6.60;99.90
44817;DHT22;30529;53.570;9.964;2023-03-14T15:32:03;6.60;99.90
44817;DHT22;30529;53.570;9.964;2023-03-14T15:34:29;6.60;99.90
44817;DHT22;30529;53.570;9.964;2023-03-14T15:36:55;6.60;99.90
44817;DHT22;30529;53.570;9.964;2023-03-14T15:39:21;6.60;99.90
44817;DHT22;30529;53.570;9.964;2023-03-14T15:41:46;6.60;99.90
44817;DHT22;30529;53.570;9.964;2023-03-14T15:44:13;6.50;99.90
44817;DHT22;30529;53.570;9.964;2023-03-14T15:46:39;6.50;99.90
44817;DHT22;30529;53.570;9.964;2023-03-14T15:49:05;6.30;99.90
44817;DHT22;30529;53.570;9.964;2023-03-14T15:51:31;6.30;99.90
44817;DHT22;30529;53.570;9.964;2023-03-14T15:53:57;6.30;99.90
44817;DHT22;30529;53.570;9.964;2023-03-14T15:56:23;6.30;99.90
44817;DHT22;30529;53.570;9.964;2023-03-14T15:58:52;6.30;99.90
44817;DHT22;30529;53.570;9.964;2023-03-14T16:01:18;6.30;99.90
44817;DHT22;30529;53.570;9.964;2023-03-14T16:03:44;6.30;99.90
44817;DHT22;30529;53.570;9.964;2023-03-14T16:06:11;6.40;99.90
44817;DHT22;30529;53.570;9.964;2023-03-14T16:08:37;6.40;99.90
44817;DHT22;30529;53.570;9.964;2023-03-14T16:11:03;6.40;99.90
44817;DHT22;30529;53.570;9.964;2023-03-14T16:13:29;6.40;99.90
44817;DHT22;30529;53.570;9.964;2023-03-14T16:16:00;6.30;99.90
44817;DHT22;30529;53.570;9.964;2023-03-14T16:18:31;6.20;99.90
44817;DHT22;30529;53.570;9.964;2023-03-14T16:21:03;6.20;99.90
44817;DHT22;30529;53.570;9.964;2023-03-14T16:23:34;6.10;99.90